To NAV CANADA Home Page Login to a new session Search on AWWS site Disclaimer Vers la page française équivalente Tips FAQ What's new on the site To the Forecasts and Observations / NOTAM section To "File a Flight Plan" website Publications and other links Update of the User's profile FIC Telephone Numbers My Weather Data Folder Route Weather Data Regional Weather Data Local Weather Data To the Forecasts and Observations / NOTAM section
Request Generated 11/13/2018 at 18:33:08 UTC . Weather information available at that time is displayed.

METAR/TAF

HOPE/BC    (show WxCam)

METAR CYHE 131800Z AUTO 10009KT 9SM CLR 04/01 A3037 RMK SLP288=
METAR CYHE 131700Z AUTO 11011KT 9SM CLR 03/01 A3039 RMK SLP294=
METAR CYHE 131600Z AUTO 11009KT 9SM CLR 02/00 A3040 RMK SLP298=

CYHE - No TAF is issued for this station

Your time UTC time
Weather data provided by Environment Canada and NAV CANADA